Minneapolis, Minnesota
Traffic Map
Current Weather Conditions
Minneapolis, Minnesota
Scattered Clouds
Scattered Clouds
29°
Feels Like: 29°
Wind Chill: 29° Ceiling: Unl
Heat Index: 29° Visibility: 10mi
Dew Point: 17° Wind: 12mph
Humidity: 47% Direction: 300° (WNW)
Pressure: 29.89in Gusts: 0mph
Raw Report DataKMSP 242010Z 30010KT 10SM FEW170 SCT250 29/17 A2989 RMK AO2 WSHFT 1950 T02890167
Traffic Incident Summary
Active as of:
Severity:
Category:
InformationThere was an issue retrieving the traffic information for this location. Please try a different location or try again shortly.
Advertisements
Track Severe Weather on mobile